Time;durP1;ratioP1;P1;durP2;ratioP2;P2;SDS_P1;SDS_P2;PMS_P1;PMS_P2;Temp;Humidity;BMP_temperature;BMP_pressure;BME280_temperature;BME280_humidity;BME280_pressure;Samples;Min_cycle;Max_cycle;Signal;HPM_P1;HPM_P2
2021/06/18 00:01:55;;;;;;;4.05;2.35;;;21.90;68.40;;;;;;5089570;28;20543;-74
2021/06/18 00:04:21;;;;;;;5.95;2.70;;;21.90;68.40;;;;;;5092920;28;20020;-75
2021/06/18 00:06:47;;;;;;;4.70;2.10;;;21.80;68.30;;;;;;5073881;28;20066;-75
2021/06/18 00:09:13;;;;;;;4.68;2.67;;;21.90;68.40;;;;;;5072624;28;20066;-76
2021/06/18 00:11:39;;;;;;;3.33;2.20;;;21.80;68.30;;;;;;5072105;28;20489;-75
2021/06/18 00:14:05;;;;;;;5.43;2.75;;;21.90;68.50;;;;;;5073616;28;20024;-75
2021/06/18 00:16:34;;;;;;;2.58;2.35;;;21.90;68.50;;;;;;5073158;28;20394;-75
2021/06/18 00:19:01;;;;;;;6.32;2.60;;;21.90;68.30;;;;;;5073899;28;20029;-75
2021/06/18 00:21:27;;;;;;;7.18;2.53;;;21.90;68.20;;;;;;5073360;28;20033;-75
2021/06/18 00:23:53;;;;;;;9.55;2.50;;;22.00;68.00;;;;;;5073345;28;20470;-75
2021/06/18 00:26:18;;;;;;;5.68;2.50;;;22.00;67.90;;;;;;5073553;28;20123;-75
2021/06/18 00:28:44;;;;;;;5.10;2.65;;;22.00;67.80;;;;;;5073712;28;20067;-75
2021/06/18 00:31:10;;;;;;;2.63;2.30;;;22.00;67.70;;;;;;5073475;28;20035;-75
2021/06/18 00:33:37;;;;;;;4.53;2.35;;;22.10;67.70;;;;;;5073478;28;20024;-75
2021/06/18 00:36:03;;;;;;;6.35;2.40;;;22.10;67.70;;;;;;5073438;28;20048;-75
2021/06/18 00:38:28;;;;;;;2.40;2.10;;;22.10;67.60;;;;;;5073322;28;20032;-75
2021/06/18 00:40:54;;;;;;;3.80;2.03;;;22.10;67.60;;;;;;5073415;28;20036;-75
2021/06/18 00:43:20;;;;;;;4.63;2.72;;;22.10;67.40;;;;;;5073293;28;20036;-75
2021/06/18 00:45:46;;;;;;;3.33;2.22;;;22.10;67.30;;;;;;5073555;28;20028;-74
2021/06/18 00:48:13;;;;;;;2.75;1.83;;;22.10;67.30;;;;;;5073326;28;20378;-75
2021/06/18 00:50:40;;;;;;;5.53;2.38;;;22.20;67.30;;;;;;5073523;28;20045;-75
2021/06/18 00:53:07;;;;;;;4.10;2.13;;;22.10;67.10;;;;;;5075633;28;20020;-75
2021/06/18 00:55:33;;;;;;;8.90;2.38;;;22.10;67.10;;;;;;5077293;28;20020;-76
2021/06/18 00:58:00;;;;;;;5.85;2.60;;;22.10;67.00;;;;;;5077328;28;20120;-75
2021/06/18 01:00:26;;;;;;;2.88;2.20;;;22.10;67.00;;;;;;5076834;28;20032;-75
2021/06/18 01:02:52;;;;;;;3.58;2.40;;;22.10;67.00;;;;;;5076775;28;20408;-75
2021/06/18 01:05:19;;;;;;;3.70;2.42;;;22.10;67.00;;;;;;5077149;28;20108;-75
2021/06/18 01:07:57;;;;;;;5.47;2.70;;;22.00;67.00;;;;;;5077193;28;20028;-75
2021/06/18 01:10:32;;;;;;;5.50;2.40;;;22.00;67.30;;;;;;5077079;28;20024;-75
2021/06/18 01:13:19;;;;;;;2.38;2.17;;;21.90;67.20;;;;;;5076735;28;20021;-75
2021/06/18 01:16:14;;;;;;;3.97;2.53;;;21.90;67.30;;;;;;5077124;28;20024;-75
2021/06/18 01:19:05;;;;;;;3.60;2.00;;;21.90;67.50;;;;;;5076980;28;20035;-75
2021/06/18 01:21:46;;;;;;;4.10;2.47;;;21.80;67.40;;;;;;5076672;28;20041;-75
2021/06/18 01:24:33;;;;;;;7.07;2.20;;;21.80;67.40;;;;;;5076523;28;20373;-75
2021/06/18 01:27:17;;;;;;;5.30;2.60;;;21.80;67.40;;;;;;5076588;28;20056;-75
2021/06/18 01:29:49;;;;;;;4.55;2.25;;;21.70;67.50;;;;;;5076706;28;20060;-75
2021/06/18 01:32:22;;;;;;;2.25;1.85;;;21.70;67.40;;;;;;5076678;28;20070;-75
2021/06/18 01:34:50;;;;;;;6.35;2.20;;;21.70;67.40;;;;;;5076540;28;20067;-75
2021/06/18 01:37:19;;;;;;;5.35;2.20;;;21.70;67.30;;;;;;5076250;28;20021;-75
2021/06/18 01:39:47;;;;;;;4.40;1.92;;;21.70;67.30;;;;;;5092029;28;20029;-75
2021/06/18 01:42:15;;;;;;;2.95;2.10;;;21.70;67.40;;;;;;5076489;28;20032;-75
2021/06/18 01:44:42;;;;;;;3.75;2.30;;;21.70;67.30;;;;;;5076329;28;20028;-75
2021/06/18 01:47:09;;;;;;;6.35;2.70;;;21.80;67.20;;;;;;5058414;28;20518;-75
2021/06/18 01:49:38;;;;;;;4.88;2.30;;;21.80;67.00;;;;;;5072878;28;20035;-75
2021/06/18 01:52:06;;;;;;;3.15;2.00;;;21.80;67.00;;;;;;5056444;28;20068;-75
2021/06/18 01:54:33;;;;;;;6.90;2.35;;;21.80;67.10;;;;;;5054937;28;20025;-75
2021/06/18 01:57:01;;;;;;;2.92;2.10;;;21.80;67.20;;;;;;5056282;28;20488;-75
2021/06/18 01:59:31;;;;;;;3.72;2.70;;;21.80;67.20;;;;;;5075693;28;20025;-75
2021/06/18 02:01:59;;;;;;;3.45;2.50;;;21.80;67.20;;;;;;5075111;28;20036;-75
2021/06/18 02:04:25;;;;;;;5.03;2.55;;;21.80;67.10;;;;;;5075271;28;20370;-75
2021/06/18 02:06:53;;;;;;;4.00;2.30;;;21.80;67.10;;;;;;5079140;28;20037;-75
2021/06/18 02:09:22;;;;;;;2.85;2.20;;;21.80;67.10;;;;;;5094921;28;20036;-75
2021/06/18 02:11:48;;;;;;;3.38;2.20;;;21.70;67.10;;;;;;5096188;28;20028;-75
2021/06/18 02:14:18;;;;;;;5.70;2.35;;;21.70;67.20;;;;;;5096276;28;20047;-74
2021/06/18 02:17:00;;;;;;;8.05;2.35;;;21.70;67.30;;;;;;5095981;28;20055;-75
2021/06/18 02:19:28;;;;;;;3.20;2.20;;;21.70;67.10;;;;;;5096093;28;20103;-75
2021/06/18 02:21:56;;;;;;;2.78;2.20;;;21.70;67.20;;;;;;5096037;28;20526;-75
2021/06/18 02:24:25;;;;;;;3.67;2.20;;;21.60;67.90;;;;;;5095664;28;20479;-75
2021/06/18 02:26:53;;;;;;;3.88;1.90;;;21.60;67.40;;;;;;5095985;28;20441;-74
2021/06/18 02:29:19;;;;;;;5.10;2.40;;;21.70;67.70;;;;;;5095927;28;20036;-74
2021/06/18 02:31:46;;;;;;;7.97;2.50;;;21.60;67.70;;;;;;5095516;28;20035;-74
2021/06/18 02:34:12;;;;;;;3.20;2.08;;;21.70;67.70;;;;;;5077733;28;20060;-75
2021/06/18 02:36:40;;;;;;;2.55;2.33;;;21.70;67.60;;;;;;5082205;28;20036;-74
2021/06/18 02:39:08;;;;;;;4.13;1.98;;;21.80;67.60;;;;;;5095875;28;20020;-74
2021/06/18 02:41:35;;;;;;;2.20;1.95;;;21.80;67.60;;;;;;5095710;28;20144;-74
2021/06/18 02:44:04;;;;;;;4.57;2.33;;;21.80;67.50;;;;;;5095937;28;20028;-74
2021/06/18 02:46:43;;;;;;;3.28;2.20;;;21.80;67.50;;;;;;5095216;28;20036;-74
2021/06/18 02:49:15;;;;;;;4.82;2.40;;;21.90;67.40;;;;;;5095892;28;20027;-74
2021/06/18 02:52:04;;;;;;;6.93;2.60;;;22.00;67.30;;;;;;5095319;28;20043;-74
2021/06/18 02:54:37;;;;;;;2.35;2.00;;;21.90;67.10;;;;;;5095618;28;20073;-74
2021/06/18 02:57:30;;;;;;;2.65;2.45;;;21.90;67.10;;;;;;5095618;28;20032;-74
2021/06/18 03:00:03;;;;;;;8.02;2.40;;;21.90;67.00;;;;;;5087854;28;20040;-74
2021/06/18 03:02:34;;;;;;;2.42;2.10;;;22.00;67.10;;;;;;5083626;28;20041;-75
2021/06/18 03:05:04;;;;;;;3.50;2.22;;;22.00;67.10;;;;;;5074232;28;20024;-74
2021/06/18 03:07:34;;;;;;;4.20;2.35;;;22.00;67.00;;;;;;5073824;28;20029;-75
2021/06/18 03:10:06;;;;;;;4.07;2.40;;;22.00;66.90;;;;;;5075203;28;20021;-75
2021/06/18 03:12:34;;;;;;;5.60;2.33;;;22.00;66.90;;;;;;5074652;28;20482;-74
2021/06/18 03:15:08;;;;;;;4.55;2.92;;;22.00;66.90;;;;;;5074784;28;20025;-74
2021/06/18 03:17:38;;;;;;;5.22;2.40;;;21.90;66.80;;;;;;5074910;28;20074;-74
2021/06/18 03:20:18;;;;;;;4.72;2.40;;;22.00;66.90;;;;;;5074699;28;20021;-74
2021/06/18 03:22:48;;;;;;;3.88;2.75;;;21.90;66.90;;;;;;5074820;28;20029;-75
2021/06/18 03:25:15;;;;;;;3.55;2.50;;;21.90;67.00;;;;;;5074565;28;20020;-75
2021/06/18 03:27:42;;;;;;;5.75;2.40;;;21.90;67.10;;;;;;5074051;28;20034;-74
2021/06/18 03:30:08;;;;;;;5.00;2.53;;;21.90;67.10;;;;;;5074791;28;20111;-74
2021/06/18 03:32:37;;;;;;;3.60;2.90;;;21.90;67.20;;;;;;5074243;28;20103;-75
2021/06/18 03:35:05;;;;;;;6.38;2.45;;;21.80;67.40;;;;;;5074268;28;20024;-74
2021/06/18 03:37:31;;;;;;;4.28;2.28;;;21.90;67.40;;;;;;5074021;28;20029;-75
2021/06/18 03:39:57;;;;;;;7.88;2.88;;;21.90;67.30;;;;;;5074198;28;20142;-75
2021/06/18 03:42:24;;;;;;;4.15;2.28;;;21.90;67.30;;;;;;5074385;28;20040;-75
2021/06/18 03:44:51;;;;;;;6.43;2.70;;;22.00;67.20;;;;;;5074329;28;20526;-75
2021/06/18 03:47:18;;;;;;;3.70;2.42;;;22.00;67.20;;;;;;5073906;28;20028;-75
2021/06/18 03:49:45;;;;;;;5.43;2.67;;;22.10;67.30;;;;;;5073969;28;20043;-75
2021/06/18 03:52:11;;;;;;;6.78;2.60;;;22.10;67.20;;;;;;5074207;28;20036;-75
2021/06/18 03:54:37;;;;;;;6.45;2.35;;;22.10;67.20;;;;;;5073718;28;20032;-75
2021/06/18 03:57:05;;;;;;;4.88;2.80;;;22.20;67.20;;;;;;5073484;28;20035;-75
2021/06/18 03:59:33;;;;;;;3.92;2.90;;;22.20;67.20;;;;;;5073840;28;20029;-75
2021/06/18 04:02:00;;;;;;;4.18;2.67;;;22.20;67.10;;;;;;5072954;28;20091;-74
2021/06/18 04:04:30;;;;;;;3.88;2.60;;;22.20;67.10;;;;;;5074642;28;20020;-75
2021/06/18 04:06:56;;;;;;;4.65;2.15;;;22.20;67.10;;;;;;5073890;28;20025;-75
2021/06/18 04:09:23;;;;;;;6.03;2.75;;;22.30;67.10;;;;;;5089605;28;20491;-75
2021/06/18 04:11:50;;;;;;;4.55;2.70;;;22.30;67.20;;;;;;5073689;28;20116;-75
2021/06/18 04:14:15;;;;;;;4.72;2.60;;;22.30;67.20;;;;;;5073773;28;20446;-75
2021/06/18 04:16:41;;;;;;;5.60;2.78;;;22.30;67.10;;;;;;5073629;28;20108;-76
2021/06/18 04:19:09;;;;;;;5.03;2.38;;;22.40;67.20;;;;;;5073604;28;20024;-75
2021/06/18 04:21:39;;;;;;;3.35;2.45;;;22.50;67.00;;;;;;5073260;28;20029;-76
2021/06/18 04:24:06;;;;;;;3.75;2.60;;;22.60;66.80;;;;;;5073327;28;20031;-75
2021/06/18 04:26:32;;;;;;;5.57;2.38;;;22.60;66.60;;;;;;5073287;28;20025;-75
2021/06/18 04:28:57;;;;;;;8.90;2.60;;;22.70;66.50;;;;;;5066682;28;20024;-75
2021/06/18 04:31:23;;;;;;;4.45;2.72;;;22.70;66.40;;;;;;5063031;28;20374;-75
2021/06/18 04:33:49;;;;;;;8.90;2.63;;;22.70;66.40;;;;;;5062167;28;20059;-75
2021/06/18 04:36:14;;;;;;;6.20;2.42;;;22.70;66.40;;;;;;5060591;28;20032;-75
2021/06/18 04:38:40;;;;;;;5.68;2.90;;;22.70;66.40;;;;;;5063533;28;20017;-76
2021/06/18 04:41:06;;;;;;;3.05;2.75;;;22.80;66.40;;;;;;5063909;28;20071;-75
2021/06/18 04:43:32;;;;;;;3.90;2.80;;;22.80;66.30;;;;;;5061318;28;20052;-76
2021/06/18 04:45:58;;;;;;;8.23;2.90;;;22.90;66.20;;;;;;5064014;28;20051;-76
2021/06/18 04:48:24;;;;;;;5.22;2.85;;;22.90;66.00;;;;;;5064270;28;20021;-75
2021/06/18 04:50:49;;;;;;;5.03;2.80;;;22.90;65.90;;;;;;5053055;28;20036;-75
2021/06/18 04:53:15;;;;;;;5.10;2.83;;;23.00;65.90;;;;;;5053496;28;20067;-75
2021/06/18 04:55:41;;;;;;;7.18;2.75;;;23.00;65.70;;;;;;5053381;28;20416;-75
2021/06/18 04:58:08;;;;;;;4.78;2.50;;;23.10;65.60;;;;;;5053056;28;20155;-75
2021/06/18 05:00:34;;;;;;;7.65;3.25;;;23.10;65.50;;;;;;5052113;28;20494;-76
2021/06/18 05:03:00;;;;;;;7.18;2.78;;;23.20;65.50;;;;;;5053265;28;20021;-76
2021/06/18 05:05:27;;;;;;;8.30;3.20;;;23.30;65.60;;;;;;5053502;28;20083;-76
2021/06/18 05:07:54;;;;;;;7.57;2.72;;;23.30;65.40;;;;;;5052992;28;20424;-75
2021/06/18 05:10:21;;;;;;;5.40;2.35;;;23.40;65.50;;;;;;5053587;28;20078;-75
2021/06/18 05:12:47;;;;;;;6.72;2.55;;;23.60;65.40;;;;;;5052797;28;20026;-75
2021/06/18 05:15:13;;;;;;;6.85;2.33;;;23.70;65.30;;;;;;5053632;28;20028;-75
2021/06/18 05:17:39;;;;;;;4.63;2.67;;;23.70;65.10;;;;;;5053187;28;20386;-74
2021/06/18 05:20:06;;;;;;;10.13;3.20;;;23.80;64.80;;;;;;5053421;28;20060;-75
2021/06/18 05:22:31;;;;;;;10.48;2.90;;;23.90;64.60;;;;;;5054389;28;20060;-75
2021/06/18 05:24:57;;;;;;;9.38;2.92;;;23.90;64.50;;;;;;5058722;28;20037;-74
2021/06/18 05:27:23;;;;;;;6.18;3.00;;;24.00;64.50;;;;;;5060318;28;20032;-75
2021/06/18 05:29:49;;;;;;;5.07;2.40;;;24.10;64.30;;;;;;5059626;28;20079;-75
2021/06/18 05:32:16;;;;;;;4.93;2.65;;;24.10;64.20;;;;;;5058334;28;20033;-75
2021/06/18 05:34:43;;;;;;;6.50;2.88;;;24.20;64.30;;;;;;5058652;28;20017;-76
2021/06/18 05:37:09;;;;;;;6.55;2.70;;;24.30;64.10;;;;;;5059523;28;20029;-74
2021/06/18 05:39:35;;;;;;;6.68;2.70;;;24.30;63.80;;;;;;5057921;28;20109;-74
2021/06/18 05:42:01;;;;;;;8.48;2.67;;;24.40;63.60;;;;;;5056467;28;20372;-75
2021/06/18 05:44:26;;;;;;;4.82;2.40;;;24.40;63.70;;;;;;5058254;28;20036;-75
2021/06/18 05:46:52;;;;;;;3.63;2.72;;;24.40;63.80;;;;;;5061104;28;20383;-75
2021/06/18 05:49:18;;;;;;;7.40;2.83;;;24.40;63.70;;;;;;5061349;28;20402;-74
2021/06/18 05:51:43;;;;;;;3.28;2.45;;;24.40;63.60;;;;;;5059517;28;20041;-75
2021/06/18 05:54:11;;;;;;;6.43;2.83;;;24.50;63.50;;;;;;5056191;28;20116;-75
2021/06/18 05:56:36;;;;;;;7.68;2.97;;;24.50;63.50;;;;;;5055884;28;20025;-76
2021/06/18 05:59:02;;;;;;;3.80;2.90;;;24.50;63.50;;;;;;5056150;28;20031;-75
2021/06/18 06:01:28;;;;;;;10.55;2.70;;;24.50;63.50;;;;;;5056006;28;20414;-75
2021/06/18 06:03:54;;;;;;;5.20;3.13;;;24.60;63.60;;;;;;5054753;28;20074;-75
2021/06/18 06:06:21;;;;;;;6.18;2.80;;;24.80;63.50;;;;;;5056094;28;20029;-75
2021/06/18 06:08:49;;;;;;;10.35;3.38;;;24.90;63.40;;;;;;5056197;28;20439;-75
2021/06/18 06:11:15;;;;;;;4.95;2.50;;;25.00;63.30;;;;;;5055779;28;20037;-75
2021/06/18 06:13:41;;;;;;;8.23;3.05;;;25.00;63.00;;;;;;5055872;28;20025;-75
2021/06/18 06:16:06;;;;;;;8.23;4.68;;;25.20;62.90;;;;;;5055839;28;20062;-75
2021/06/18 06:18:32;;;;;;;5.25;2.80;;;25.30;62.60;;;;;;5055968;28;20360;-75
2021/06/18 06:20:58;;;;;;;5.32;2.72;;;25.30;62.40;;;;;;5055476;28;20044;-74
2021/06/18 06:23:24;;;;;;;3.40;3.00;;;25.40;62.30;;;;;;5055895;28;20025;-76
2021/06/18 06:25:49;;;;;;;11.40;3.17;;;25.50;62.40;;;;;;5054479;28;20036;-76
2021/06/18 06:28:15;;;;;;;5.93;2.63;;;25.60;62.10;;;;;;5054997;28;20379;-76
2021/06/18 06:30:41;;;;;;;3.83;2.53;;;25.70;61.80;;;;;;5055119;28;20082;-76
2021/06/18 06:33:07;;;;;;;5.65;2.78;;;25.90;61.50;;;;;;5054395;28;20035;-76
2021/06/18 06:35:33;;;;;;;6.88;3.00;;;25.90;61.30;;;;;;5055097;28;20025;-79
2021/06/18 06:37:59;;;;;;;8.00;2.65;;;26.00;61.20;;;;;;5075116;28;20119;-76
2021/06/18 06:40:25;;;;;;;9.60;2.80;;;26.10;60.90;;;;;;5075276;28;20052;-76
2021/06/18 06:42:51;;;;;;;4.97;2.78;;;26.20;60.50;;;;;;5074618;28;20098;-76
2021/06/18 06:45:18;;;;;;;8.68;2.63;;;26.30;60.20;;;;;;5059017;28;20036;-76
2021/06/18 06:47:46;;;;;;;6.85;2.55;;;26.40;60.20;;;;;;5054849;28;20117;-75
2021/06/18 06:50:12;;;;;;;2.83;2.55;;;26.50;60.10;;;;;;5054761;28;20044;-76
2021/06/18 06:52:39;;;;;;;5.65;2.47;;;26.60;60.00;;;;;;5054217;28;20031;-77
2021/06/18 06:55:06;;;;;;;3.78;2.50;;;26.70;59.90;;;;;;5054824;28;20021;-76
2021/06/18 06:57:32;;;;;;;3.42;2.50;;;26.80;59.60;;;;;;5054400;28;20025;-75
2021/06/18 06:59:58;;;;;;;3.88;2.60;;;27.00;59.60;;;;;;5054598;28;20029;-76
2021/06/18 07:02:23;;;;;;;3.28;2.80;;;27.10;59.40;;;;;;5054456;28;20108;-76
2021/06/18 07:04:49;;;;;;;3.85;2.80;;;27.30;58.90;;;;;;5054447;28;20021;-76
2021/06/18 07:07:16;;;;;;;9.95;2.78;;;27.40;58.70;;;;;;5054260;28;20025;-76
2021/06/18 07:09:41;;;;;;;14.77;3.03;;;27.60;58.70;;;;;;5060500;28;20070;-76
2021/06/18 07:12:09;;;;;;;5.40;2.50;;;27.70;58.30;;;;;;5062745;28;20446;-76
2021/06/18 07:14:37;;;;;;;5.43;2.70;;;27.70;57.90;;;;;;5062029;28;20387;-76
2021/06/18 07:17:04;;;;;;;4.72;2.58;;;27.80;58.50;;;;;;5063029;28;20075;-76
2021/06/18 07:19:30;;;;;;;5.55;2.72;;;27.70;57.60;;;;;;5063688;28;20033;-78
2021/06/18 07:21:56;;;;;;;4.47;2.80;;;27.70;57.70;;;;;;5061253;28;20031;-76
2021/06/18 07:24:21;;;;;;;4.65;2.30;;;27.80;58.00;;;;;;5062030;28;20471;-75
2021/06/18 07:26:47;;;;;;;6.32;2.60;;;28.00;58.10;;;;;;5062737;28;20020;-76
2021/06/18 07:29:13;;;;;;;9.93;3.00;;;28.30;57.90;;;;;;5063944;28;20016;-75
2021/06/18 07:31:38;;;;;;;5.35;2.78;;;28.50;57.90;;;;;;5062406;28;20029;-80
2021/06/18 07:34:06;;;;;;;3.13;2.70;;;28.60;57.40;;;;;;5062488;28;20024;-76
2021/06/18 07:36:32;;;;;;;2.78;2.42;;;28.60;57.10;;;;;;5061186;28;20025;-76
2021/06/18 07:38:58;;;;;;;3.22;2.95;;;28.50;57.00;;;;;;5061726;28;20017;-75
2021/06/18 07:41:24;;;;;;;7.07;2.88;;;28.40;57.10;;;;;;5062887;28;20028;-75
2021/06/18 07:43:50;;;;;;;5.97;2.90;;;28.30;57.20;;;;;;5063357;28;20029;-78
2021/06/18 07:46:16;;;;;;;5.55;2.80;;;28.30;57.30;;;;;;5061606;28;20024;-75
2021/06/18 07:48:42;;;;;;;4.07;2.90;;;28.20;57.30;;;;;;5062588;28;20428;-77
2021/06/18 07:51:08;;;;;;;6.38;2.80;;;28.00;57.10;;;;;;5063256;28;20033;-75
2021/06/18 07:53:34;;;;;;;8.00;2.90;;;27.90;57.20;;;;;;5061134;28;20028;-75
2021/06/18 07:56:00;;;;;;;8.82;2.90;;;27.90;57.40;;;;;;5061949;28;20467;-76
2021/06/18 07:58:26;;;;;;;8.68;2.97;;;27.90;57.50;;;;;;5061170;28;20485;-74
2021/06/18 08:00:52;;;;;;;6.88;2.83;;;28.00;57.70;;;;;;5060718;28;20037;-75
2021/06/18 08:03:17;;;;;;;4.68;2.70;;;28.00;57.90;;;;;;5060814;28;20029;-75
2021/06/18 08:05:44;;;;;;;5.80;2.92;;;27.90;58.00;;;;;;5062429;28;20020;-75
2021/06/18 08:08:12;;;;;;;10.07;2.90;;;28.00;58.20;;;;;;5062889;28;20471;-77
2021/06/18 08:10:38;;;;;;;6.95;3.20;;;28.00;57.80;;;;;;5060696;28;20086;-75
2021/06/18 08:13:04;;;;;;;16.17;2.95;;;28.20;57.50;;;;;;5053730;28;20029;-75
2021/06/18 08:15:30;;;;;;;6.05;2.60;;;28.50;56.80;;;;;;5053177;28;20107;-76
2021/06/18 08:17:56;;;;;;;8.00;2.67;;;28.70;56.10;;;;;;5052071;28;20419;-75
2021/06/18 08:20:25;;;;;;;5.68;2.60;;;28.90;55.70;;;;;;5053260;28;20029;-74
2021/06/18 08:22:51;;;;;;;13.00;3.78;;;29.00;55.50;;;;;;5053209;28;20043;-75
2021/06/18 08:25:17;;;;;;;5.28;2.72;;;29.10;55.50;;;;;;5064297;28;20087;-75
2021/06/18 08:27:44;;;;;;;11.98;2.85;;;29.00;55.50;;;;;;5062328;28;20025;-76
2021/06/18 08:30:10;;;;;;;7.63;2.63;;;29.00;55.80;;;;;;5061029;28;20017;-76
2021/06/18 08:32:36;;;;;;;10.93;2.80;;;29.00;55.80;;;;;;5061260;28;20485;-76
2021/06/18 08:35:03;;;;;;;5.50;2.80;;;29.10;55.90;;;;;;5062304;28;20025;-76
2021/06/18 08:37:29;;;;;;;4.72;2.33;;;29.20;56.00;;;;;;5060574;28;20502;-76
2021/06/18 08:39:54;;;;;;;5.35;2.85;;;29.30;56.00;;;;;;5062236;28;20024;-79
2021/06/18 08:42:20;;;;;;;3.45;2.42;;;29.70;56.10;;;;;;5070130;28;20451;-76
2021/06/18 08:44:46;;;;;;;6.28;2.45;;;30.00;56.00;;;;;;5060807;28;20077;-76
2021/06/18 08:47:13;;;;;;;10.52;2.83;;;30.30;55.20;;;;;;5053024;28;20108;-74
2021/06/18 08:49:39;;;;;;;7.82;2.85;;;30.60;54.60;;;;;;5065941;28;20033;-75
2021/06/18 08:52:05;;;;;;;4.93;2.50;;;30.70;54.00;;;;;;5064383;28;20029;-76
2021/06/18 08:54:44;;;;;;;7.85;2.60;;;30.70;53.70;;;;;;5062142;28;20059;-76
2021/06/18 08:57:15;;;;;;;7.78;3.03;;;30.70;54.00;;;;;;5073048;28;20036;-76
2021/06/18 08:59:42;;;;;;;7.22;2.80;;;30.90;54.10;;;;;;5071768;28;20493;-77
2021/06/18 09:02:09;;;;;;;6.85;2.92;;;31.00;54.00;;;;;;5072817;28;20040;-76
2021/06/18 09:05:01;;;;;;;6.88;2.53;;;31.30;53.50;;;;;;5073181;28;20466;-76
2021/06/18 09:07:27;;;;;;;3.47;2.95;;;31.70;52.70;;;;;;5072988;28;20352;-76
2021/06/18 09:09:53;;;;;;;8.85;2.85;;;32.10;52.00;;;;;;5072480;28;20017;-76
2021/06/18 09:12:18;;;;;;;10.02;2.88;;;32.40;51.50;;;;;;5072875;28;20032;-76
2021/06/18 09:14:44;;;;;;;7.97;2.80;;;32.70;51.00;;;;;;5075086;28;20036;-77
2021/06/18 09:17:18;;;;;;;8.73;2.50;;;32.70;50.60;;;;;;5076728;28;20070;-76
2021/06/18 09:19:47;;;;;;;4.63;2.70;;;33.00;50.70;;;;;;5068957;28;20036;-76
2021/06/18 09:22:14;;;;;;;8.70;2.50;;;33.30;50.20;;;;;;5076352;28;20158;-76
2021/06/18 09:24:43;;;;;;;6.45;2.80;;;33.70;49.80;;;;;;5076716;28;20036;-76
2021/06/18 09:27:09;;;;;;;5.22;2.60;;;34.10;49.40;;;;;;5075741;28;20474;-77
2021/06/18 09:29:35;;;;;;;7.15;2.70;;;34.40;49.10;;;;;;5076942;28;20021;-76
2021/06/18 09:32:07;;;;;;;11.45;3.35;;;34.70;48.40;;;;;;5076506;28;20037;-76
2021/06/18 09:37:38;;;;;;;4.78;2.58;;;34.90;47.90;;;;;;5076469;28;20039;-76
2021/06/18 09:40:16;;;;;;;5.80;2.70;;;35.20;47.70;;;;;;5076598;28;20355;-75
2021/06/18 09:42:45;;;;;;;6.85;2.90;;;35.20;47.80;;;;;;5076047;28;20032;-75
2021/06/18 09:45:19;;;;;;;6.90;2.63;;;35.60;47.70;;;;;;5074959;28;20028;-76
2021/06/18 09:47:45;;;;;;;9.45;2.90;;;35.70;46.80;;;;;;5076418;28;20075;-77
2021/06/18 09:50:14;;;;;;;8.43;2.90;;;35.30;46.50;;;;;;5059892;28;20442;-77
2021/06/18 09:52:43;;;;;;;16.30;5.53;;;34.90;46.40;;;;;;5055815;28;20057;-77
2021/06/18 09:55:18;;;;;;;8.13;3.33;;;34.40;47.00;;;;;;5054872;28;20036;-76
2021/06/18 09:57:44;;;;;;;8.70;2.85;;;34.00;47.50;;;;;;5055932;28;20040;-79
2021/06/18 10:00:17;;;;;;;10.45;2.50;;;33.50;47.90;;;;;;5054771;28;20025;-76
2021/06/18 10:02:51;;;;;;;9.52;3.20;;;33.10;48.60;;;;;;5055418;28;20112;-76
2021/06/18 10:05:39;;;;;;;7.43;2.60;;;32.70;50.00;;;;;;5056029;28;20115;-75
2021/06/18 10:08:06;;;;;;;3.92;3.00;;;32.50;49.90;;;;;;5054742;28;20275;-75
2021/06/18 10:10:35;;;;;;;6.18;2.58;;;32.50;50.00;;;;;;5056044;28;20389;-77
2021/06/18 10:13:02;;;;;;;14.45;3.10;;;32.50;49.90;;;;;;5055824;28;20036;-76
2021/06/18 10:15:30;;;;;;;11.30;3.25;;;32.60;50.20;;;;;;5055449;28;20036;-76
2021/06/18 10:17:58;;;;;;;9.38;2.65;;;33.00;50.20;;;;;;5055778;28;20081;-76
2021/06/18 10:20:29;;;;;;;6.97;2.70;;;33.90;50.00;;;;;;5055648;28;20025;-76
2021/06/18 10:23:04;;;;;;;7.05;2.63;;;35.10;48.60;;;;;;5054194;28;20068;-76
2021/06/18 10:25:37;;;;;;;5.15;2.60;;;35.50;47.10;;;;;;5053803;28;20475;-76
2021/06/18 10:28:06;;;;;;;8.82;2.78;;;36.10;46.40;;;;;;5055553;28;20104;-76
2021/06/18 10:30:44;;;;;;;12.32;2.80;;;36.90;45.60;;;;;;5055720;28;20367;-76
2021/06/18 10:33:25;;;;;;;4.97;2.40;;;37.90;44.40;;;;;;5052956;28;20115;-76
2021/06/18 10:36:17;;;;;;;4.35;2.55;;;38.80;43.20;;;;;;5055322;28;20086;-77
2021/06/18 10:39:00;;;;;;;7.55;2.80;;;39.50;42.60;;;;;;5055160;28;20094;-76
2021/06/18 10:41:27;;;;;;;7.73;2.80;;;39.90;41.60;;;;;;5055489;28;20140;-76
2021/06/18 10:43:56;;;;;;;5.07;2.30;;;39.60;41.50;;;;;;5055300;28;20304;-76
2021/06/18 10:46:33;;;;;;;8.38;2.67;;;39.80;41.50;;;;;;5055126;28;20039;-76
2021/06/18 10:49:05;;;;;;;6.35;2.40;;;40.30;41.20;;;;;;5054819;28;20025;-76
2021/06/18 10:51:43;;;;;;;6.88;2.33;;;40.40;40.90;;;;;;5055228;28;20044;-75
2021/06/18 10:54:26;;;;;;;2.42;2.10;;;39.80;40.80;;;;;;5054420;28;20044;-77
2021/06/18 10:57:20;;;;;;;9.52;2.78;;;39.30;41.10;;;;;;5055087;28;20029;-75
2021/06/18 10:59:50;;;;;;;9.57;2.85;;;38.70;41.80;;;;;;5055151;28;20029;-75
2021/06/18 11:02:30;;;;;;;6.90;2.90;;;37.90;42.30;;;;;;5054745;28;20039;-77
2021/06/18 11:04:57;;;;;;;4.82;2.40;;;37.10;43.00;;;;;;5053609;28;20060;-76
2021/06/18 11:07:31;;;;;;;7.78;3.35;;;36.20;44.00;;;;;;5055055;28;20021;-76
2021/06/18 11:09:57;;;;;;;17.52;3.35;;;35.40;45.10;;;;;;5053221;28;20075;-75
2021/06/18 11:12:22;;;;;;;4.88;2.60;;;34.50;46.10;;;;;;5053041;28;20471;-75
2021/06/18 11:14:59;;;;;;;6.22;2.60;;;33.90;47.10;;;;;;5054651;28;20032;-81
2021/06/18 11:18:11;;;;;;;5.03;2.47;;;33.40;48.00;;;;;;5054640;28;20031;-75
2021/06/18 11:20:36;;;;;;;11.05;2.78;;;32.90;48.70;;;;;;5054564;28;20032;-75
2021/06/18 11:23:08;;;;;;;5.90;2.90;;;32.50;49.00;;;;;;5054010;28;20379;-76
2021/06/18 11:25:37;;;;;;;5.25;2.47;;;32.30;49.50;;;;;;5054602;28;20036;-75
2021/06/18 11:28:25;;;;;;;2.65;2.45;;;32.20;50.00;;;;;;5053938;28;20024;-75
2021/06/18 11:30:55;;;;;;;10.35;3.30;;;32.00;50.20;;;;;;5054173;28;20033;-76
2021/06/18 11:33:39;;;;;;;7.70;2.85;;;31.90;50.40;;;;;;5054296;28;20040;-76
2021/06/18 11:36:25;;;;;;;;;;;31.60;50.60;;;;;;5054100;28;20032;-76
2021/06/18 11:39:00;;;;;;;5.72;2.90;;;31.40;50.40;;;;;;5053758;28;20316;-77
2021/06/18 11:41:28;;;;;;;5.68;2.83;;;31.10;51.40;;;;;;5052680;28;20033;-74
2021/06/18 11:43:56;;;;;;;3.42;2.30;;;30.90;51.70;;;;;;5054077;28;20043;-76
2021/06/18 11:46:25;;;;;;;15.55;3.58;;;31.00;52.10;;;;;;5053774;28;20028;-76
2021/06/18 11:48:52;;;;;;;11.88;3.25;;;31.40;52.10;;;;;;5053683;28;20029;-80
2021/06/18 11:51:26;;;;;;;9.30;2.70;;;31.60;51.60;;;;;;5050652;28;20033;-81
2021/06/18 11:53:52;;;;;;;7.38;2.58;;;31.80;51.30;;;;;;5052092;28;20405;-77
2021/06/18 11:56:18;;;;;;;6.90;2.63;;;32.20;51.20;;;;;;5053094;28;20036;-78
2021/06/18 11:58:46;;;;;;;5.90;2.75;;;33.00;51.00;;;;;;5053241;28;20025;-75
2021/06/18 12:01:18;;;;;;;4.80;2.60;;;33.60;49.80;;;;;;5052866;28;20118;-78
2021/06/18 12:03:49;;;;;;;4.67;2.60;;;34.10;49.20;;;;;;5053286;28;20033;-75
2021/06/18 12:06:22;;;;;;;11.27;3.17;;;34.80;48.60;;;;;;5052880;28;20416;-76
2021/06/18 12:09:15;;;;;;;2.75;2.55;;;35.60;47.30;;;;;;5053735;28;20048;-77
2021/06/18 12:11:44;;;;;;;;;;;36.20;46.30;;;;;;5053798;28;20033;-77
2021/06/18 12:14:13;;;;;;;4.60;2.45;;;37.00;46.70;;;;;;5053327;28;19905;-76
2021/06/18 12:16:44;;;;;;;11.82;2.95;;;37.60;45.10;;;;;;5052689;28;20025;-76
2021/06/18 12:19:24;;;;;;;11.38;2.88;;;38.00;44.20;;;;;;5056044;28;20423;-76
2021/06/18 12:22:07;;;;;;;4.43;2.85;;;38.80;43.50;;;;;;5062000;28;20091;-77
2021/06/18 12:24:43;;;;;;;6.35;2.72;;;39.70;42.70;;;;;;5064008;28;20021;-75
2021/06/18 12:27:10;;;;;;;3.63;2.67;;;40.40;42.00;;;;;;5063759;28;20024;-76
2021/06/18 12:29:45;;;;;;;10.02;2.80;;;41.00;41.40;;;;;;5071285;28;20046;-76
2021/06/18 12:32:13;;;;;;;8.93;2.70;;;41.70;40.60;;;;;;5073116;28;20029;-77
2021/06/18 12:34:51;;;;;;;4.72;2.60;;;42.60;39.70;;;;;;5073026;28;20033;-76
2021/06/18 12:37:18;;;;;;;5.60;2.65;;;43.30;38.50;;;;;;5073414;28;20029;-77
2021/06/18 12:40:03;;;;;;;7.22;2.60;;;43.30;37.90;;;;;;5073168;28;20024;-76
2021/06/18 12:42:38;;;;;;;5.72;2.33;;;42.40;38.00;;;;;;5073187;28;20432;-76
2021/06/18 12:45:08;;;;;;;3.13;2.45;;;42.00;38.30;;;;;;5073031;28;20029;-78
2021/06/18 12:47:34;;;;;;;6.22;2.50;;;41.90;38.60;;;;;;5073148;28;20112;-76
2021/06/18 12:53:04;;;;;;;;;;;42.90;38.30;;;;;;5077364;28;20056;-76
2021/06/18 12:55:42;;;;;;;15.07;3.22;;;43.40;38.90;;;;;;5077186;28;19909;-76
2021/06/18 12:58:23;;;;;;;4.85;2.50;;;43.90;37.80;;;;;;5076658;28;20020;-77
2021/06/18 13:00:56;;;;;;;8.85;2.88;;;44.40;36.90;;;;;;5076542;28;20033;-75
2021/06/18 13:03:48;;;;;;;4.57;2.60;;;44.60;36.70;;;;;;5076167;28;20097;-76